Time;durP1;ratioP1;P1;durP2;ratioP2;P2;SDS_P1;SDS_P2;PMS_P1;PMS_P2;Temp;Humidity;BMP_temperature;BMP_pressure;BME280_temperature;BME280_humidity;BME280_pressure;Samples;Min_cycle;Max_cycle;Signal;HPM_P1;HPM_P2
2021/10/03 00:00:16;;;;;;;5.65;3.13;;;;;;;;;;5014518;28;20036;-54
2021/10/03 00:02:42;;;;;;;9.10;5.10;;;;;;;;;;5020424;28;20033;-54
2021/10/03 00:05:09;;;;;;;9.32;5.13;;;;;;;;;;5016925;28;20021;-53
2021/10/03 00:07:35;;;;;;;8.13;4.55;;;;;;;;;;5031620;28;20017;-52
2021/10/03 00:10:00;;;;;;;7.60;4.55;;;;;;;;;;5025089;28;20120;-53
2021/10/03 00:12:25;;;;;;;6.82;4.57;;;;;;;;;;5018531;28;20047;-54
2021/10/03 00:14:50;;;;;;;7.15;4.03;;;;;;;;;;5019866;28;20033;-53
2021/10/03 00:17:16;;;;;;;7.88;3.95;;;;;;;;;;5021727;28;20034;-54
2021/10/03 00:19:41;;;;;;;9.65;4.90;;;;;;;;;;5024944;28;20582;-54
2021/10/03 00:22:06;;;;;;;16.73;4.30;;;;;;;;;;5020613;28;20717;-54
2021/10/03 00:24:31;;;;;;;8.20;4.28;;;;;;;;;;5022600;28;20539;-51
2021/10/03 00:26:57;;;;;;;7.45;4.43;;;;;;;;;;5013176;28;20479;-54
2021/10/03 00:29:23;;;;;;;7.90;4.38;;;;;;;;;;5010018;28;20026;-54
2021/10/03 00:31:48;;;;;;;6.35;4.13;;;;;;;;;;5009737;28;20594;-53
2021/10/03 00:34:13;;;;;;;7.47;4.68;;;;;;;;;;5022888;28;20030;-53
2021/10/03 00:36:38;;;;;;;7.78;4.43;;;;;;;;;;5017072;28;20041;-55
2021/10/03 00:39:04;;;;;;;6.53;4.22;;;;;;;;;;5024120;28;20032;-55
2021/10/03 00:41:29;;;;;;;9.73;4.40;;;;;;;;;;5010228;28;20034;-52
2021/10/03 00:43:55;;;;;;;8.27;4.30;;;;;;;;;;5017776;28;20026;-53
2021/10/03 00:46:20;;;;;;;8.30;4.10;;;;;;;;;;5013759;28;20041;-52
2021/10/03 00:48:45;;;;;;;8.20;4.20;;;;;;;;;;5027307;28;20041;-54
2021/10/03 00:51:11;;;;;;;7.10;3.80;;;;;;;;;;5029794;28;20095;-54
2021/10/03 00:53:36;;;;;;;6.32;4.15;;;;;;;;;;5035223;28;20061;-55
2021/10/03 00:56:01;;;;;;;6.35;4.05;;;;;;;;;;5012973;28;20041;-54
2021/10/03 00:58:26;;;;;;;7.63;4.38;;;;;;;;;;5014944;28;20048;-54
2021/10/03 01:00:51;;;;;;;7.05;4.20;;;;;;;;;;5019116;28;20026;-54
2021/10/03 01:03:17;;;;;;;8.07;4.10;;;;;;;;;;5017556;28;20128;-53
2021/10/03 01:05:42;;;;;;;6.88;4.07;;;;;;;;;;5016585;28;20030;-54
2021/10/03 01:08:07;;;;;;;6.90;4.45;;;;;;;;;;5014684;28;20033;-54
2021/10/03 01:10:32;;;;;;;11.00;4.20;;;;;;;;;;5039146;28;20049;-53
2021/10/03 01:13:08;;;;;;;10.35;4.70;;;;;;;;;;5022680;28;20132;-53
2021/10/03 01:15:34;;;;;;;7.30;4.18;;;;;;;;;;5009611;28;20041;-56
2021/10/03 01:17:59;;;;;;;6.90;4.28;;;;;;;;;;5019618;28;20470;-53
2021/10/03 01:20:24;;;;;;;9.15;4.70;;;;;;;;;;5016410;28;20038;-54
2021/10/03 01:22:50;;;;;;;9.35;4.63;;;;;;;;;;5020171;28;20021;-54
2021/10/03 01:25:15;;;;;;;8.30;4.40;;;;;;;;;;5021136;28;20065;-54
2021/10/03 01:27:40;;;;;;;11.05;4.65;;;;;;;;;;5015433;28;20680;-52
2021/10/03 01:30:06;;;;;;;8.10;4.43;;;;;;;;;;5021020;28;20026;-54
2021/10/03 01:32:31;;;;;;;12.50;4.72;;;;;;;;;;5016664;28;20490;-53
2021/10/03 01:34:56;;;;;;;8.70;4.93;;;;;;;;;;5018895;28;20033;-53
2021/10/03 01:37:23;;;;;;;8.13;4.65;;;;;;;;;;5018449;28;20033;-54
2021/10/03 01:39:48;;;;;;;6.57;4.43;;;;;;;;;;5018553;28;20030;-54
2021/10/03 01:42:14;;;;;;;7.72;5.22;;;;;;;;;;5022306;28;20115;-54
2021/10/03 01:44:39;;;;;;;8.85;4.88;;;;;;;;;;5018615;28;20277;-53
2021/10/03 01:47:04;;;;;;;9.25;4.57;;;;;;;;;;5021880;28;20033;-54
2021/10/03 01:49:30;;;;;;;10.23;4.90;;;;;;;;;;5021121;28;20124;-54
2021/10/03 01:51:55;;;;;;;8.90;4.65;;;;;;;;;;5014292;28;20038;-54
2021/10/03 01:54:20;;;;;;;8.82;4.78;;;;;;;;;;5025003;28;20030;-54
2021/10/03 01:56:45;;;;;;;11.15;5.40;;;;;;;;;;5012585;28;20037;-54
2021/10/03 01:59:10;;;;;;;9.55;5.32;;;;;;;;;;5022844;28;20154;-53
2021/10/03 02:01:42;;;;;;;13.30;5.57;;;;;;;;;;5018434;28;20160;-54
2021/10/03 02:04:11;;;;;;;8.18;5.10;;;;;;;;;;5017274;28;20018;-53
2021/10/03 02:06:43;;;;;;;7.00;5.28;;;;;;;;;;5014218;28;20034;-53
2021/10/03 02:09:08;;;;;;;12.82;6.00;;;;;;;;;;5017514;28;20025;-53
2021/10/03 02:11:33;;;;;;;7.72;5.68;;;;;;;;;;5018226;28;20295;-54
2021/10/03 02:13:59;;;;;;;10.23;5.72;;;;;;;;;;5030139;28;20410;-53
2021/10/03 02:16:24;;;;;;;13.82;6.15;;;;;;;;;;5020998;28;20455;-54
2021/10/03 02:18:50;;;;;;;10.18;5.63;;;;;;;;;;5024273;28;20044;-54
2021/10/03 02:21:15;;;;;;;10.45;6.00;;;;;;;;;;5029051;28;20387;-54
2021/10/03 02:23:41;;;;;;;10.05;5.97;;;;;;;;;;5023129;28;20674;-54
2021/10/03 02:26:06;;;;;;;9.77;6.00;;;;;;;;;;5023794;28;20067;-54
2021/10/03 02:28:32;;;;;;;8.35;6.15;;;;;;;;;;5017075;28;20074;-55
2021/10/03 02:30:59;;;;;;;10.50;6.47;;;;;;;;;;5021806;28;20033;-54
2021/10/03 02:33:24;;;;;;;11.07;6.22;;;;;;;;;;5025032;28;20055;-55
2021/10/03 02:35:49;;;;;;;13.25;6.35;;;;;;;;;;5012010;28;20033;-54
2021/10/03 02:38:15;;;;;;;8.60;6.25;;;;;;;;;;5016297;28;20069;-54
2021/10/03 02:40:40;;;;;;;10.05;6.40;;;;;;;;;;5012967;28;20026;-54
2021/10/03 02:43:06;;;;;;;9.65;6.10;;;;;;;;;;5018038;28;20029;-52
2021/10/03 02:45:38;;;;;;;10.60;6.50;;;;;;;;;;5017939;28;20033;-55
2021/10/03 02:48:03;;;;;;;13.80;6.20;;;;;;;;;;5011854;28;20029;-54
2021/10/03 02:50:29;;;;;;;11.55;6.57;;;;;;;;;;5021207;28;20029;-54
2021/10/03 02:52:54;;;;;;;10.70;6.43;;;;;;;;;;5029338;28;20037;-54
2021/10/03 02:55:19;;;;;;;13.07;6.40;;;;;;;;;;5016204;28;21437;-54
2021/10/03 02:57:45;;;;;;;11.43;6.43;;;;;;;;;;5022540;28;20472;-55
2021/10/03 03:00:10;;;;;;;9.15;6.00;;;;;;;;;;5019141;28;20033;-54
2021/10/03 03:02:37;;;;;;;10.90;5.40;;;;;;;;;;5018820;28;20026;-53
2021/10/03 03:05:03;;;;;;;10.10;6.25;;;;;;;;;;5015377;28;20034;-53
2021/10/03 03:07:28;;;;;;;11.95;6.47;;;;;;;;;;5016571;28;20030;-52
2021/10/03 03:09:53;;;;;;;8.60;5.88;;;;;;;;;;5014010;28;20113;-54
2021/10/03 03:12:18;;;;;;;12.15;7.35;;;;;;;;;;5020973;28;20052;-55
2021/10/03 03:14:43;;;;;;;9.13;6.55;;;;;;;;;;5018816;28;20063;-53
2021/10/03 03:17:13;;;;;;;12.18;6.70;;;;;;;;;;5013133;28;20057;-54
2021/10/03 03:19:38;;;;;;;10.18;6.78;;;;;;;;;;5020961;28;20017;-54
2021/10/03 03:22:03;;;;;;;12.05;6.88;;;;;;;;;;5021658;28;20093;-54
2021/10/03 03:24:28;;;;;;;17.85;6.90;;;;;;;;;;5018972;28;20029;-55
2021/10/03 03:26:54;;;;;;;10.60;5.97;;;;;;;;;;5013677;28;20180;-53
2021/10/03 03:29:19;;;;;;;9.40;5.88;;;;;;;;;;5014405;28;20045;-53
2021/10/03 03:31:44;;;;;;;13.45;6.75;;;;;;;;;;5024849;28;20045;-55
2021/10/03 03:34:09;;;;;;;9.82;6.60;;;;;;;;;;5017240;28;20103;-54
2021/10/03 03:36:34;;;;;;;11.80;6.57;;;;;;;;;;5016454;28;20037;-54
2021/10/03 03:39:00;;;;;;;11.73;6.95;;;;;;;;;;5020410;28;20041;-54
2021/10/03 03:41:25;;;;;;;9.07;6.57;;;;;;;;;;5015636;28;20041;-54
2021/10/03 03:43:50;;;;;;;10.40;6.00;;;;;;;;;;5001546;28;20022;-53
2021/10/03 03:46:16;;;;;;;12.00;6.40;;;;;;;;;;5011725;28;20036;-54
2021/10/03 03:48:41;;;;;;;10.93;6.50;;;;;;;;;;5024918;28;20614;-55
2021/10/03 03:51:06;;;;;;;10.10;6.40;;;;;;;;;;5019154;28;20545;-53
2021/10/03 03:53:32;;;;;;;10.55;6.60;;;;;;;;;;5022428;28;20448;-54
2021/10/03 03:55:57;;;;;;;11.95;6.35;;;;;;;;;;5009285;28;20184;-54
2021/10/03 03:58:23;;;;;;;11.98;6.40;;;;;;;;;;4996501;28;20026;-53
2021/10/03 04:00:48;;;;;;;11.43;5.70;;;;;;;;;;4998618;28;20050;-54
2021/10/03 04:03:13;;;;;;;10.43;6.53;;;;;;;;;;5000904;28;20037;-53
2021/10/03 04:05:39;;;;;;;11.25;6.25;;;;;;;;;;4996939;28;20825;-53
2021/10/03 04:08:08;;;;;;;10.07;6.47;;;;;;;;;;4997551;28;20762;-51
2021/10/03 04:10:33;;;;;;;10.02;6.50;;;;;;;;;;5000141;28;20627;-54
2021/10/03 04:12:58;;;;;;;8.30;5.10;;;;;;;;;;4999438;28;20030;-53
2021/10/03 04:15:23;;;;;;;9.68;6.40;;;;;;;;;;5000715;28;20034;-53
2021/10/03 04:17:49;;;;;;;9.25;5.68;;;;;;;;;;4997049;28;20487;-54
2021/10/03 04:20:14;;;;;;;11.70;6.10;;;;;;;;;;5000406;28;20391;-52
2021/10/03 04:22:39;;;;;;;14.25;6.32;;;;;;;;;;4994999;28;20060;-53
2021/10/03 04:25:05;;;;;;;9.43;5.20;;;;;;;;;;4996148;28;20085;-54
2021/10/03 04:27:30;;;;;;;10.30;6.07;;;;;;;;;;5003761;28;20667;-54
2021/10/03 04:29:55;;;;;;;7.72;5.20;;;;;;;;;;4999530;28;20025;-54
2021/10/03 04:32:20;;;;;;;11.80;6.18;;;;;;;;;;4999532;28;20069;-54
2021/10/03 04:34:46;;;;;;;10.20;6.32;;;;;;;;;;5001513;28;20053;-53
2021/10/03 04:37:11;;;;;;;10.82;6.22;;;;;;;;;;4997069;28;20137;-54
2021/10/03 04:39:36;;;;;;;11.05;5.95;;;;;;;;;;4994993;28;20022;-53
2021/10/03 04:42:02;;;;;;;8.27;5.38;;;;;;;;;;4992263;28;20050;-54
2021/10/03 04:44:27;;;;;;;9.82;5.43;;;;;;;;;;4996881;28;20113;-53
2021/10/03 04:46:52;;;;;;;10.30;6.10;;;;;;;;;;5007981;28;20515;-51
2021/10/03 04:49:17;;;;;;;10.77;6.10;;;;;;;;;;5001846;28;20408;-54
2021/10/03 04:51:42;;;;;;;15.15;6.25;;;;;;;;;;5005375;28;20362;-54
2021/10/03 04:54:08;;;;;;;9.65;6.25;;;;;;;;;;5014162;28;20030;-53
2021/10/03 04:56:33;;;;;;;9.90;5.93;;;;;;;;;;5018908;28;20037;-53
2021/10/03 04:58:58;;;;;;;12.65;6.38;;;;;;;;;;5021246;28;20021;-52
2021/10/03 05:01:23;;;;;;;9.88;6.18;;;;;;;;;;5026223;28;20033;-51
2021/10/03 05:03:49;;;;;;;10.63;5.63;;;;;;;;;;5025197;28;20036;-54
2021/10/03 05:06:14;;;;;;;16.42;5.88;;;;;;;;;;5020027;28;20064;-53
2021/10/03 05:08:39;;;;;;;9.27;5.70;;;;;;;;;;5018693;28;20700;-53
2021/10/03 05:11:05;;;;;;;9.15;5.60;;;;;;;;;;5015574;28;20057;-52
2021/10/03 05:13:30;;;;;;;8.60;5.53;;;;;;;;;;5012214;28;20134;-51
2021/10/03 05:15:56;;;;;;;11.43;5.55;;;;;;;;;;5023616;28;20124;-53
2021/10/03 05:18:21;;;;;;;12.15;5.65;;;;;;;;;;5015939;28;20602;-54
2021/10/03 05:20:47;;;;;;;9.73;6.05;;;;;;;;;;5015690;28;20033;-54
2021/10/03 05:23:12;;;;;;;9.43;5.60;;;;;;;;;;5016203;28;20080;-53
2021/10/03 05:25:37;;;;;;;10.65;5.82;;;;;;;;;;5021241;28;20033;-52
2021/10/03 05:28:02;;;;;;;10.40;5.70;;;;;;;;;;5031638;28;20022;-54
2021/10/03 05:30:28;;;;;;;9.30;5.97;;;;;;;;;;5024475;28;20575;-54
2021/10/03 05:32:53;;;;;;;10.13;5.47;;;;;;;;;;5009298;28;20454;-53
2021/10/03 05:35:18;;;;;;;9.20;5.40;;;;;;;;;;5018070;28;20021;-54
2021/10/03 05:37:44;;;;;;;11.88;6.00;;;;;;;;;;5007044;28;20132;-54
2021/10/03 05:40:09;;;;;;;9.57;6.05;;;;;;;;;;5012554;28;20049;-54
2021/10/03 05:42:35;;;;;;;10.23;4.78;;;;;;;;;;5018798;28;20024;-52
2021/10/03 05:45:00;;;;;;;11.60;5.00;;;;;;;;;;5015907;28;20561;-52
2021/10/03 05:47:25;;;;;;;9.93;5.68;;;;;;;;;;5020670;28;20084;-53
2021/10/03 05:49:50;;;;;;;7.20;4.47;;;;;;;;;;5011899;28;20080;-52
2021/10/03 05:52:15;;;;;;;8.15;5.60;;;;;;;;;;5015716;28;20036;-54
2021/10/03 05:54:41;;;;;;;9.88;5.03;;;;;;;;;;5017621;28;20036;-53
2021/10/03 05:57:06;;;;;;;8.00;5.05;;;;;;;;;;5022500;28;20103;-52
2021/10/03 05:59:31;;;;;;;7.75;5.22;;;;;;;;;;5012615;28;20069;-54
2021/10/03 06:01:56;;;;;;;7.40;5.10;;;;;;;;;;5018950;28;20152;-54
2021/10/03 06:04:22;;;;;;;9.43;5.30;;;;;;;;;;5010465;28;20025;-55
2021/10/03 06:06:47;;;;;;;10.23;5.82;;;;;;;;;;5024400;28;20476;-54
2021/10/03 06:09:12;;;;;;;8.77;4.90;;;;;;;;;;5019171;28;20387;-53
2021/10/03 06:11:37;;;;;;;8.75;5.47;;;;;;;;;;5017985;28;20407;-54
2021/10/03 06:14:03;;;;;;;7.53;4.28;;;;;;;;;;5020111;28;20850;-53
2021/10/03 06:16:28;;;;;;;7.45;5.35;;;;;;;;;;5018986;28;20046;-54
2021/10/03 06:18:53;;;;;;;11.50;5.38;;;;;;;;;;5018901;28;20029;-53
2021/10/03 06:21:19;;;;;;;8.68;5.68;;;;;;;;;;5017741;28;20057;-56
2021/10/03 06:23:45;;;;;;;8.68;5.70;;;;;;;;;;5024710;28;20043;-53
2021/10/03 06:26:11;;;;;;;7.70;5.30;;;;;;;;;;5017269;28;20034;-55
2021/10/03 06:28:36;;;;;;;9.02;5.20;;;;;;;;;;5022096;28;20048;-52
2021/10/03 06:31:02;;;;;;;11.30;4.95;;;;;;;;;;5019855;28;20132;-53
2021/10/03 06:33:27;;;;;;;10.68;5.32;;;;;;;;;;5019490;28;20076;-51
2021/10/03 06:35:52;;;;;;;11.38;5.25;;;;;;;;;;5020328;28;20523;-54
2021/10/03 06:38:17;;;;;;;10.90;4.63;;;;;;;;;;5014886;28;20048;-54
2021/10/03 06:40:43;;;;;;;12.10;5.85;;;;;;;;;;5018593;28;20046;-55
2021/10/03 06:43:08;;;;;;;8.65;4.88;;;;;;;;;;5018065;28;20025;-54
2021/10/03 06:45:33;;;;;;;9.93;5.38;;;;;;;;;;5016816;28;20085;-54
2021/10/03 06:47:58;;;;;;;8.15;4.95;;;;;;;;;;5002057;28;20072;-54
2021/10/03 06:50:26;;;;;;;10.93;4.78;;;;;;;;;;5001530;28;20183;-53
2021/10/03 06:52:51;;;;;;;7.53;4.93;;;;;;;;;;5015772;28;20489;-53
2021/10/03 06:55:16;;;;;;;8.05;5.00;;;;;;;;;;5017638;28;20021;-54
2021/10/03 06:57:41;;;;;;;9.98;4.80;;;;;;;;;;5004308;28;20026;-55
2021/10/03 07:00:08;;;;;;;9.27;5.07;;;;;;;;;;4997452;28;20030;-53
2021/10/03 07:02:33;;;;;;;6.80;4.78;;;;;;;;;;5000456;28;20105;-53
2021/10/03 07:04:58;;;;;;;14.45;5.25;;;;;;;;;;4999234;28;20133;-54
2021/10/03 07:07:23;;;;;;;8.25;4.50;;;;;;;;;;5000731;28;20436;-56
2021/10/03 07:09:49;;;;;;;7.20;5.03;;;;;;;;;;4999906;28;20022;-56
2021/10/03 07:12:14;;;;;;;8.07;4.82;;;;;;;;;;5021082;28;20442;-55
2021/10/03 07:14:42;;;;;;;10.80;5.40;;;;;;;;;;5018786;28;20049;-55
2021/10/03 07:17:07;;;;;;;9.70;5.88;;;;;;;;;;5007965;28;20033;-54
2021/10/03 07:19:32;;;;;;;10.77;5.38;;;;;;;;;;5001753;28;20018;-54
2021/10/03 07:21:58;;;;;;;9.30;4.82;;;;;;;;;;4994164;28;20101;-55
2021/10/03 07:24:23;;;;;;;9.45;5.10;;;;;;;;;;4988541;28;20545;-54
2021/10/03 07:26:48;;;;;;;11.02;4.90;;;;;;;;;;5004704;28;20087;-54
2021/10/03 07:29:13;;;;;;;9.23;4.95;;;;;;;;;;5030692;28;20025;-55
2021/10/03 07:31:39;;;;;;;12.55;4.93;;;;;;;;;;5014097;28;20038;-54
2021/10/03 07:34:04;;;;;;;10.65;5.38;;;;;;;;;;5019587;28;20038;-54
2021/10/03 07:36:29;;;;;;;8.13;4.93;;;;;;;;;;5010870;28;20088;-54
2021/10/03 07:38:54;;;;;;;11.85;5.00;;;;;;;;;;5017401;28;20029;-54
2021/10/03 07:41:21;;;;;;;9.40;4.72;;;;;;;;;;5015796;28;20030;-53
2021/10/03 07:43:47;;;;;;;7.68;5.35;;;;;;;;;;5017537;28;20036;-54
2021/10/03 07:46:12;;;;;;;7.97;4.72;;;;;;;;;;5026925;28;20418;-54
2021/10/03 07:48:37;;;;;;;8.43;4.75;;;;;;;;;;5014885;28;20033;-54
2021/10/03 07:51:03;;;;;;;10.75;4.80;;;;;;;;;;5013951;28;20030;-55
2021/10/03 07:53:28;;;;;;;7.88;4.95;;;;;;;;;;5019710;28;20037;-54
2021/10/03 07:55:53;;;;;;;6.47;4.28;;;;;;;;;;5017687;28;20048;-54
2021/10/03 07:58:18;;;;;;;7.28;4.47;;;;;;;;;;5020552;28;20031;-55
2021/10/03 08:00:43;;;;;;;7.05;4.47;;;;;;;;;;5016829;28;20033;-54
2021/10/03 08:03:09;;;;;;;9.00;4.63;;;;;;;;;;5020249;28;20275;-54
2021/10/03 08:05:35;;;;;;;6.60;4.25;;;;;;;;;;5020159;28;20041;-56
2021/10/03 08:08:00;;;;;;;6.90;4.97;;;;;;;;;;5012476;28;20140;-54
2021/10/03 08:10:25;;;;;;;7.25;4.70;;;;;;;;;;5012602;28;20050;-54
2021/10/03 08:12:51;;;;;;;8.55;4.53;;;;;;;;;;5013853;28;20038;-54
2021/10/03 08:15:16;;;;;;;6.45;4.38;;;;;;;;;;5020634;28;20009;-55
2021/10/03 08:17:41;;;;;;;8.80;4.95;;;;;;;;;;5009032;28;20049;-54
2021/10/03 08:20:07;;;;;;;7.68;5.03;;;;;;;;;;5022470;28;20013;-55
2021/10/03 08:22:32;;;;;;;8.77;4.95;;;;;;;;;;5023855;28;20061;-53
2021/10/03 08:24:57;;;;;;;9.20;4.97;;;;;;;;;;5022981;28;20044;-55
2021/10/03 08:27:22;;;;;;;6.20;2.83;;;;;;;;;;5019554;28;20223;-54
2021/10/03 08:29:47;;;;;;;8.18;4.60;;;;;;;;;;5010894;28;20168;-55
2021/10/03 08:32:13;;;;;;;6.63;4.53;;;;;;;;;;5019956;28;20045;-55
2021/10/03 08:34:38;;;;;;;8.00;4.32;;;;;;;;;;5013157;28;20038;-54
2021/10/03 08:37:03;;;;;;;8.48;4.47;;;;;;;;;;5014651;28;20030;-53
2021/10/03 08:39:28;;;;;;;10.43;4.93;;;;;;;;;;5019421;28;20026;-54
2021/10/03 08:41:53;;;;;;;7.50;4.47;;;;;;;;;;5019320;28;20128;-52
2021/10/03 08:44:19;;;;;;;6.65;4.75;;;;;;;;;;5021314;28;20399;-55
2021/10/03 08:46:45;;;;;;;8.43;4.65;;;;;;;;;;5019583;28;20125;-54
2021/10/03 08:49:10;;;;;;;9.77;4.88;;;;;;;;;;5017675;28;20037;-55
2021/10/03 08:51:35;;;;;;;11.27;4.55;;;;;;;;;;5016671;28;20048;-55
2021/10/03 08:54:01;;;;;;;6.88;4.63;;;;;;;;;;5011266;28;20052;-55
2021/10/03 08:56:26;;;;;;;8.65;4.93;;;;;;;;;;5015218;28;20037;-54
2021/10/03 08:58:51;;;;;;;9.32;4.93;;;;;;;;;;5018085;28;20026;-54
2021/10/03 09:01:17;;;;;;;8.38;4.70;;;;;;;;;;5021824;28;20053;-54
2021/10/03 09:03:42;;;;;;;7.30;5.10;;;;;;;;;;5015096;28;20465;-55
2021/10/03 09:06:08;;;;;;;8.07;4.90;;;;;;;;;;5015254;28;20038;-55
2021/10/03 09:08:37;;;;;;;7.82;4.72;;;;;;;;;;5018087;28;20020;-53
2021/10/03 09:11:03;;;;;;;13.13;4.85;;;;;;;;;;5018330;28;20053;-54
2021/10/03 09:13:31;;;;;;;7.88;5.05;;;;;;;;;;5016169;28;20030;-54
2021/10/03 09:16:12;;;;;;;8.90;5.07;;;;;;;;;;5019755;28;20065;-55
2021/10/03 09:18:53;;;;;;;10.25;5.40;;;;;;;;;;5015941;28;20028;-55
2021/10/03 09:21:31;;;;;;;8.63;5.22;;;;;;;;;;5019481;28;20690;-54
2021/10/03 09:23:59;;;;;;;7.00;4.90;;;;;;;;;;5018353;28;20533;-54
2021/10/03 09:26:24;;;;;;;9.65;4.72;;;;;;;;;;5018279;28;20038;-55
2021/10/03 09:28:50;;;;;;;7.28;4.72;;;;;;;;;;5020703;28;20468;-53
2021/10/03 09:31:15;;;;;;;8.95;5.13;;;;;;;;;;5019229;28;21015;-55
2021/10/03 09:33:44;;;;;;;9.80;5.00;;;;;;;;;;5025562;28;20397;-55
2021/10/03 09:36:10;;;;;;;10.27;4.95;;;;;;;;;;5018292;28;20034;-54
2021/10/03 09:38:49;;;;;;;10.02;5.63;;;;;;;;;;5020083;28;20071;-55
2021/10/03 09:41:14;;;;;;;8.75;5.10;;;;;;;;;;5034683;28;20057;-54
2021/10/03 09:43:40;;;;;;;7.03;4.47;;;;;;;;;;5019015;28;20068;-55
2021/10/03 09:46:05;;;;;;;8.27;4.72;;;;;;;;;;5012043;28;20042;-54
2021/10/03 09:48:43;;;;;;;8.13;4.20;;;;;;;;;;5024582;28;20611;-55
2021/10/03 09:51:09;;;;;;;11.45;4.97;;;;;;;;;;5011286;28;20037;-54
2021/10/03 09:53:34;;;;;;;7.72;4.70;;;;;;;;;;5019956;28;20044;-55
2021/10/03 09:55:59;;;;;;;6.68;4.30;;;;;;;;;;5036618;28;20029;-55
2021/10/03 09:58:24;;;;;;;6.95;4.35;;;;;;;;;;5022419;28;20029;-53
2021/10/03 10:00:49;;;;;;;7.18;5.07;;;;;;;;;;5023530;28;20045;-54
2021/10/03 10:03:15;;;;;;;9.80;4.68;;;;;;;;;;5022645;28;20294;-55
2021/10/03 10:05:40;;;;;;;6.97;4.38;;;;;;;;;;5022478;28;20761;-53
2021/10/03 10:08:05;;;;;;;10.15;4.72;;;;;;;;;;5024328;28;20025;-54
2021/10/03 10:10:31;;;;;;;8.32;4.95;;;;;;;;;;5013455;28;20099;-54
2021/10/03 10:13:08;;;;;;;6.13;4.03;;;;;;;;;;5017666;28;20064;-55
2021/10/03 10:15:33;;;;;;;7.15;4.45;;;;;;;;;;5023898;28;20136;-55
2021/10/03 10:17:59;;;;;;;5.97;4.43;;;;;;;;;;5018854;28;20580;-54
2021/10/03 10:20:25;;;;;;;8.00;4.68;;;;;;;;;;5024559;28;20034;-54
2021/10/03 10:23:01;;;;;;;11.90;5.30;;;;;;;;;;5030414;28;20121;-54
2021/10/03 10:25:38;;;;;;;9.13;4.68;;;;;;;;;;5025486;28;20033;-54
2021/10/03 10:28:04;;;;;;;6.47;4.28;;;;;;;;;;5014122;28;20467;-54
2021/10/03 10:30:29;;;;;;;7.00;4.50;;;;;;;;;;5012664;28;20064;-55
2021/10/03 10:32:55;;;;;;;5.45;3.95;;;;;;;;;;5025056;28;20034;-55
2021/10/03 10:35:20;;;;;;;6.45;4.40;;;;;;;;;;5010884;28;20092;-52
2021/10/03 10:37:48;;;;;;;8.45;4.50;;;;;;;;;;5010397;28;20033;-54
2021/10/03 10:42:51;;;;;;;11.23;4.40;;;;;;;;;;5017232;28;20111;-54
2021/10/03 10:45:29;;;;;;;9.07;4.55;;;;;;;;;;5014327;28;20025;-54
2021/10/03 10:48:10;;;;;;;5.95;4.07;;;;;;;;;;5009769;28;20037;-55
2021/10/03 10:50:36;;;;;;;8.68;4.47;;;;;;;;;;5030007;28;20041;-54
2021/10/03 10:53:16;;;;;;;7.28;3.67;;;;;;;;;;5016370;28;20029;-55
2021/10/03 10:55:42;;;;;;;8.45;3.90;;;;;;;;;;5011265;28;20554;-55
2021/10/03 10:58:07;;;;;;;10.02;4.40;;;;;;;;;;5027014;28;20129;-55
2021/10/03 11:00:33;;;;;;;8.60;4.03;;;;;;;;;;5019468;28;20061;-55
2021/10/03 11:03:02;;;;;;;6.55;4.43;;;;;;;;;;5019493;28;20393;-55
2021/10/03 11:05:47;;;;;;;6.10;3.97;;;;;;;;;;5021585;28;20029;-55
2021/10/03 11:08:13;;;;;;;7.68;4.28;;;;;;;;;;5013245;28;20041;-54
2021/10/03 11:10:56;;;;;;;6.93;3.83;;;;;;;;;;5019715;28;20045;-55
2021/10/03 11:13:40;;;;;;;6.30;3.70;;;;;;;;;;5017237;28;20037;-54
2021/10/03 11:16:24;;;;;;;7.20;3.85;;;;;;;;;;5019824;28;20088;-55
2021/10/03 11:18:53;;;;;;;5.43;3.95;;;;;;;;;;5026523;28;20032;-53
2021/10/03 11:21:25;;;;;;;6.60;3.20;;;;;;;;;;5021296;28;20567;-54
2021/10/03 11:23:51;;;;;;;6.78;4.28;;;;;;;;;;5008545;28;20036;-54
2021/10/03 11:26:17;;;;;;;5.30;3.13;;;;;;;;;;5009690;28;20132;-55
2021/10/03 11:28:55;;;;;;;6.55;4.28;;;;;;;;;;5010531;28;20371;-55
2021/10/03 11:31:40;;;;;;;6.53;3.53;;;;;;;;;;5016854;28;20051;-55
2021/10/03 11:34:06;;;;;;;9.02;3.92;;;;;;;;;;5018633;28;20510;-55
2021/10/03 11:36:31;;;;;;;7.07;3.67;;;;;;;;;;5031327;28;20074;-55
2021/10/03 11:38:57;;;;;;;7.05;3.88;;;;;;;;;;5021773;28;20442;-54
2021/10/03 11:41:22;;;;;;;6.82;3.58;;;;;;;;;;5011905;28;20029;-55
2021/10/03 11:43:48;;;;;;;9.13;4.18;;;;;;;;;;5023731;28;20044;-54
2021/10/03 11:46:13;;;;;;;6.82;4.15;;;;;;;;;;5024619;28;20033;-55
2021/10/03 11:48:38;;;;;;;10.30;3.92;;;;;;;;;;5011305;28;20022;-53
2021/10/03 11:51:03;;;;;;;6.18;3.90;;;;;;;;;;5022398;28;20538;-54
2021/10/03 11:53:33;;;;;;;9.88;4.10;;;;;;;;;;5006815;28;20609;-55
2021/10/03 11:56:05;;;;;;;7.35;4.30;;;;;;;;;;5009599;28;20044;-54
2021/10/03 11:58:34;;;;;;;8.60;3.88;;;;;;;;;;5009795;28;20109;-55
2021/10/03 12:01:02;;;;;;;9.05;3.83;;;;;;;;;;5014255;28;20775;-55
2021/10/03 12:03:30;;;;;;;8.18;3.90;;;;;;;;;;5013251;28;20538;-56
2021/10/03 12:05:55;;;;;;;6.78;4.03;;;;;;;;;;5006291;28;20045;-55
2021/10/03 12:08:21;;;;;;;7.18;4.22;;;;;;;;;;5013284;28;20038;-54
2021/10/03 12:10:46;;;;;;;8.77;3.85;;;;;;;;;;5013268;28;20080;-54
2021/10/03 12:13:12;;;;;;;7.82;3.83;;;;;;;;;;5016647;28;20030;-54
2021/10/03 12:15:54;;;;;;;4.95;3.47;;;;;;;;;;5009769;28;20095;-54
2021/10/03 12:18:28;;;;;;;8.95;4.10;;;;;;;;;;5008824;28;20017;-55
2021/10/03 12:20:56;;;;;;;10.88;3.90;;;;;;;;;;5009621;28;20045;-55
2021/10/03 12:23:38;;;;;;;15.00;3.70;;;;;;;;;;5005904;28;20614;-54
2021/10/03 12:26:08;;;;;;;8.63;3.47;;;;;;;;;;5005671;28;20030;-53
2021/10/03 12:28:52;;;;;;;11.68;4.22;;;;;;;;;;5005754;28;20561;-54
2021/10/03 12:31:33;;;;;;;8.75;4.10;;;;;;;;;;5013501;28;20297;-55
2021/10/03 12:33:58;;;;;;;9.88;4.07;;;;;;;;;;5015152;28;20025;-55
2021/10/03 12:36:23;;;;;;;8.45;4.03;;;;;;;;;;5016622;28;20060;-54
2021/10/03 12:38:49;;;;;;;8.82;4.15;;;;;;;;;;5009493;28;20487;-55
2021/10/03 12:41:14;;;;;;;5.15;3.25;;;;;;;;;;5009864;28;20506;-55
2021/10/03 12:43:55;;;;;;;9.55;4.00;;;;;;;;;;5014145;28;20025;-55
2021/10/03 12:46:21;;;;;;;9.57;4.22;;;;;;;;;;5021589;28;20068;-54
2021/10/03 12:48:46;;;;;;;11.38;4.00;;;;;;;;;;5010891;28;20061;-54
2021/10/03 12:51:11;;;;;;;6.80;3.83;;;;;;;;;;5006389;28;20400;-55
2021/10/03 12:53:36;;;;;;;6.00;3.83;;;;;;;;;;5015625;28;20566;-55
2021/10/03 12:56:01;;;;;;;6.25;3.90;;;;;;;;;;5011683;28;20597;-55
2021/10/03 12:58:27;;;;;;;8.20;3.83;;;;;;;;;;5016955;28;20391;-55
2021/10/03 13:00:52;;;;;;;5.25;3.78;;;;;;;;;;5010089;28;20070;-54
2021/10/03 13:03:17;;;;;;;6.88;3.80;;;;;;;;;;5017846;28;20432;-55
2021/10/03 13:05:42;;;;;;;6.32;3.78;;;;;;;;;;5020186;28;20040;-55
2021/10/03 13:08:08;;;;;;;7.13;3.97;;;;;;;;;;5009989;28;20038;-54
2021/10/03 13:10:33;;;;;;;7.32;4.00;;;;;;;;;;5020321;28;20042;-54
2021/10/03 13:12:58;;;;;;;8.05;4.13;;;;;;;;;;5019427;28;20071;-55
2021/10/03 13:15:23;;;;;;;8.27;4.07;;;;;;;;;;5024449;28;20037;-54
2021/10/03 13:17:48;;;;;;;6.10;3.38;;;;;;;;;;5017632;28;20034;-55
2021/10/03 13:20:14;;;;;;;5.85;3.38;;;;;;;;;;5030580;28;20590;-55
2021/10/03 13:22:39;;;;;;;7.63;3.70;;;;;;;;;;5017376;28;20164;-55
2021/10/03 13:25:05;;;;;;;6.30;3.08;;;;;;;;;;5014039;28;20111;-54
2021/10/03 13:27:30;;;;;;;3.35;2.38;;;;;;;;;;5019981;28;20025;-54
2021/10/03 13:29:55;;;;;;;3.97;2.30;;;;;;;;;;5020845;28;20064;-54
2021/10/03 13:32:20;;;;;;;4.78;1.85;;;;;;;;;;5013648;28;20052;-53
2021/10/03 13:34:45;;;;;;;2.70;1.75;;;;;;;;;;5020200;28;20034;-55
2021/10/03 13:37:11;;;;;;;2.95;1.88;;;;;;;;;;5020618;28;20038;-54
2021/10/03 13:39:36;;;;;;;3.88;1.88;;;;;;;;;;5021866;28;20243;-55
2021/10/03 13:42:01;;;;;;;3.08;1.85;;;;;;;;;;5023578;28;20034;-54
2021/10/03 13:44:26;;;;;;;3.47;2.00;;;;;;;;;;5019083;28;20029;-54
2021/10/03 13:46:51;;;;;;;5.07;2.42;;;;;;;;;;5018242;28;20041;-55
2021/10/03 13:49:17;;;;;;;5.80;2.70;;;;;;;;;;5014930;28;20014;-55
2021/10/03 13:51:42;;;;;;;6.18;2.90;;;;;;;;;;5013164;28;20251;-54
2021/10/03 13:54:07;;;;;;;7.43;2.35;;;;;;;;;;5017776;28;20038;-54
2021/10/03 13:56:32;;;;;;;4.13;2.28;;;;;;;;;;5023112;28;20030;-54
2021/10/03 13:58:57;;;;;;;6.72;2.72;;;;;;;;;;5013712;28;20033;-55
2021/10/03 14:01:23;;;;;;;4.35;2.35;;;;;;;;;;5025479;28;20065;-55
2021/10/03 14:03:49;;;;;;;5.55;3.03;;;;;;;;;;5022582;28;20025;-55
2021/10/03 14:06:14;;;;;;;4.47;2.13;;;;;;;;;;5015451;28;20396;-55
2021/10/03 14:08:39;;;;;;;4.97;2.10;;;;;;;;;;5012312;28;20061;-53
2021/10/03 14:11:04;;;;;;;4.07;2.10;;;;;;;;;;5014271;28;20053;-55
2021/10/03 14:13:30;;;;;;;4.47;1.83;;;;;;;;;;5017917;28;20046;-56
2021/10/03 14:15:55;;;;;;;2.42;1.80;;;;;;;;;;5015293;28;20044;-54
2021/10/03 14:18:21;;;;;;;4.30;2.10;;;;;;;;;;5012125;28;20065;-54
2021/10/03 14:20:46;;;;;;;5.72;2.08;;;;;;;;;;5024001;28;20404;-54
2021/10/03 14:23:11;;;;;;;4.20;2.00;;;;;;;;;;5009839;28;20153;-55
2021/10/03 14:25:37;;;;;;;6.25;1.70;;;;;;;;;;5024413;28;20080;-54
2021/10/03 14:28:02;;;;;;;4.53;1.90;;;;;;;;;;5024119;28;20060;-55
2021/10/03 14:30:28;;;;;;;9.75;2.25;;;;;;;;;;5017122;28;20066;-55
2021/10/03 14:32:54;;;;;;;3.30;1.70;;;;;;;;;;5009376;28;20026;-53
2021/10/03 14:35:19;;;;;;;6.40;2.22;;;;;;;;;;5017195;28;20076;-53